Metar z połowy godziny Komunikat METAR ze strony awiacja.imgw.pl Metar G30 EPTM METAR EPTM 240500Z 16006KT 3000 BR SCT020 BKN100 M03/M05 Q1024 RMK M034 091 6/3=